Time,TemperatureF,DewpointF,PressureIn,WindDirection,WindDirectionDegrees,WindSpeedMPH,WindSpeedGustMPH,Humidity,HourlyPrecipIn,Conditions,Clouds,dailyrainin,SoftwareType,DateUTC
2013-08-05 00:02:00,65.0,64.0,29.98,North,0,0.0,0.0,96,0.00,,,0.01,,2013-08-05 04:02:00,
2013-08-05 00:12:00,65.0,64.0,29.98,North,0,0.0,0.0,96,0.00,,,0.01,,2013-08-05 04:12:00,
2013-08-05 00:22:00,65.0,64.0,29.98,North,0,0.0,0.0,96,0.00,,,0.01,,2013-08-05 04:22:00,
2013-08-05 00:32:00,65.0,64.0,29.98,North,0,0.0,0.0,96,0.00,,,0.01,,2013-08-05 04:32:00,
2013-08-05 00:43:00,65.0,64.0,29.98,North,0,0.0,0.0,96,0.00,,,0.01,,2013-08-05 04:43:00,
2013-08-05 00:52:00,65.0,64.0,29.98,North,0,0.0,0.0,96,0.00,,,0.01,,2013-08-05 04:52:00,
2013-08-05 01:02:00,65.0,64.0,29.99,North,0,0.0,0.0,97,0.00,,,0.01,,2013-08-05 05:02:00,
2013-08-05 01:12:00,64.0,63.0,29.99,North,0,0.0,0.0,96,0.00,,,0.01,,2013-08-05 05:12:00,
2013-08-05 01:22:00,64.0,63.0,29.99,North,0,0.0,0.0,96,0.00,,,0.01,,2013-08-05 05:22:00,
2013-08-05 01:32:00,64.0,63.0,29.98,North,0,0.0,0.0,96,0.00,,,0.01,,2013-08-05 05:32:00,
2013-08-05 01:42:00,64.0,63.0,29.98,North,0,0.0,0.0,96,0.00,,,0.01,,2013-08-05 05:42:00,
2013-08-05 01:53:00,64.0,63.0,29.98,North,0,0.0,0.0,97,0.00,,,0.01,,2013-08-05 05:53:00,
2013-08-05 02:02:00,64.0,63.0,29.98,North,0,0.0,0.0,97,0.00,,,0.01,,2013-08-05 06:02:00,
2013-08-05 02:12:00,63.0,62.0,29.98,North,0,0.0,0.0,97,0.00,,,0.01,,2013-08-05 06:12:00,
2013-08-05 02:22:00,63.0,62.0,29.98,North,0,0.0,0.0,97,0.00,,,0.01,,2013-08-05 06:22:00,
2013-08-05 02:32:00,63.0,62.0,29.98,North,0,0.0,0.0,97,0.00,,,0.01,,2013-08-05 06:32:00,
2013-08-05 02:43:00,63.0,62.0,29.98,North,0,0.0,0.0,97,0.00,,,0.01,,2013-08-05 06:43:00,
2013-08-05 02:52:00,63.0,62.0,29.98,North,0,0.0,0.0,97,0.00,,,0.01,,2013-08-05 06:52:00,
2013-08-05 03:02:00,63.0,62.0,29.98,North,0,0.0,0.0,97,0.00,,,0.01,,2013-08-05 07:02:00,
2013-08-05 03:12:00,63.0,62.0,29.98,North,0,0.0,0.0,97,0.00,,,0.01,,2013-08-05 07:12:00,
2013-08-05 03:32:00,62.0,61.0,29.98,North,0,0.0,0.0,97,0.00,,,0.01,,2013-08-05 07:32:00,
2013-08-05 03:43:00,62.0,61.0,29.98,North,0,0.0,0.0,97,0.00,,,0.01,,2013-08-05 07:43:00,
2013-08-05 03:53:00,62.0,61.0,29.98,North,0,0.0,0.0,97,0.00,,,0.01,,2013-08-05 07:53:00,
2013-08-05 04:02:00,62.0,61.0,29.98,North,0,0.0,0.0,97,0.00,,,0.01,,2013-08-05 08:02:00,
2013-08-05 04:12:00,62.0,61.0,29.99,North,0,0.0,0.0,97,0.00,,,0.01,,2013-08-05 08:12:00,
2013-08-05 04:22:00,62.0,61.0,29.99,North,0,0.0,0.0,97,0.00,,,0.01,,2013-08-05 08:22:00,
2013-08-05 04:34:00,62.0,61.0,29.99,North,0,0.0,0.0,97,0.00,,,0.01,,2013-08-05 08:34:00,
2013-08-05 04:50:00,62.0,61.0,29.99,North,0,0.0,0.0,98,0.00,,,0.01,,2013-08-05 08:50:00,
2013-08-05 05:08:00,62.0,61.0,29.99,North,0,0.0,0.0,97,0.00,,,0.01,,2013-08-05 09:08:00,
2013-08-05 05:20:00,62.0,61.0,29.98,North,0,0.0,0.0,97,0.00,,,0.01,,2013-08-05 09:20:00,
2013-08-05 05:27:00,62.0,61.0,29.98,North,0,0.0,0.0,97,0.00,,,0.01,,2013-08-05 09:27:00,
2013-08-05 05:40:00,62.0,61.0,29.98,North,0,0.0,0.0,97,0.00,,,0.01,,2013-08-05 09:40:00,
2013-08-05 05:48:00,62.0,61.0,29.98,North,0,0.0,0.0,97,0.00,,,0.01,,2013-08-05 09:48:00,
2013-08-05 05:53:00,62.0,61.0,29.99,North,0,0.0,0.0,97,0.00,,,0.01,,2013-08-05 09:53:00,
2013-08-05 06:12:00,61.0,60.0,29.99,North,0,0.0,0.0,97,0.00,,,0.01,,2013-08-05 10:12:00,
2013-08-05 06:28:00,61.0,60.0,29.99,North,0,0.0,0.0,97,0.00,,,0.00,,2013-08-05 10:28:00,
2013-08-05 06:48:00,61.0,60.0,30.00,North,0,0.0,0.0,98,0.00,,,0.00,,2013-08-05 10:48:00,
2013-08-05 07:08:00,61.0,60.0,30.01,North,0,0.0,0.0,98,0.00,,,0.00,,2013-08-05 11:08:00,
2013-08-05 07:14:00,61.0,60.0,30.01,North,0,0.0,0.0,98,0.00,,,0.00,,2013-08-05 11:14:00,
2013-08-05 07:37:00,61.0,60.0,30.01,North,0,0.0,0.0,98,0.00,,,0.00,,2013-08-05 11:37:00,
2013-08-05 07:58:00,61.0,60.0,30.01,North,0,0.0,0.0,98,0.00,,,0.00,,2013-08-05 11:58:00,
2013-08-05 08:27:00,64.0,63.0,30.04,North,0,0.0,0.0,98,0.00,,,0.00,,2013-08-05 12:27:00,
2013-08-05 08:34:00,64.0,63.0,30.04,North,0,0.0,0.0,98,0.00,,,0.00,,2013-08-05 12:34:00,
2013-08-05 08:56:00,65.0,64.0,30.04,North,0,0.0,0.0,98,0.00,,,0.00,,2013-08-05 12:56:00,
2013-08-05 09:03:00,65.0,64.0,30.04,North,0,0.0,0.0,98,0.00,,,0.00,,2013-08-05 13:03:00,
2013-08-05 09:14:00,65.0,64.0,30.04,North,0,0.0,0.0,98,0.00,,,0.00,,2013-08-05 13:14:00,
2013-08-05 09:29:00,67.0,66.0,30.04,North,0,0.0,0.0,96,0.00,,,0.00,,2013-08-05 13:29:00,
2013-08-05 09:39:00,68.0,66.0,30.05,North,0,0.0,0.0,92,0.00,,,0.00,,2013-08-05 13:39:00,
2013-08-05 09:44:00,68.0,66.0,30.05,North,0,0.0,0.0,92,0.00,,,0.00,,2013-08-05 13:44:00,
2013-08-05 09:54:00,69.0,65.0,30.04,North,0,0.0,0.0,88,0.00,,,0.00,,2013-08-05 13:54:00,
2013-08-05 10:06:00,71.0,65.0,30.04,North,0,0.0,0.0,81,0.00,,,0.00,,2013-08-05 14:06:00,
2013-08-05 10:17:00,71.0,65.0,30.04,North,0,0.0,0.0,81,0.00,,,0.00,,2013-08-05 14:17:00,
2013-08-05 10:39:00,74.0,66.0,30.03,North,0,0.0,4.0,75,0.00,,,0.00,,2013-08-05 14:39:00,
2013-08-05 10:48:00,74.0,66.0,30.03,North,0,0.0,4.0,75,0.00,,,0.00,,2013-08-05 14:48:00,
2013-08-05 10:54:00,74.0,66.0,30.03,North,0,0.0,4.0,75,0.00,,,0.00,,2013-08-05 14:54:00,
2013-08-05 11:08:00,74.0,66.0,30.03,North,0,0.0,4.0,75,0.00,,,0.00,,2013-08-05 15:08:00,
2013-08-05 11:17:00,77.0,65.0,30.04,North,0,0.0,4.0,66,0.00,,,0.00,,2013-08-05 15:17:00,
2013-08-05 11:58:00,78.0,62.0,30.05,SSE,165,1.0,6.0,58,0.00,,,0.00,,2013-08-05 15:58:00,
2013-08-05 12:27:00,80.0,66.0,30.03,North,0,0.0,5.0,62,0.00,,,0.00,,2013-08-05 16:27:00,
2013-08-05 12:33:00,80.0,66.0,30.03,North,0,0.0,5.0,62,0.00,,,0.00,,2013-08-05 16:33:00,
2013-08-05 12:45:00,80.0,62.0,30.03,SE,145,1.0,6.0,54,0.00,,,0.00,,2013-08-05 16:45:00,
2013-08-05 12:57:00,80.0,63.0,30.03,North,0,0.0,5.0,56,0.00,,,0.00,,2013-08-05 16:57:00,
2013-08-05 13:08:00,80.0,61.0,30.02,SSE,161,1.0,5.0,53,0.00,,,0.00,,2013-08-05 17:08:00,
2013-08-05 13:16:00,80.0,61.0,30.02,SSE,161,1.0,5.0,53,0.00,,,0.00,,2013-08-05 17:16:00,
2013-08-05 13:22:00,80.0,61.0,30.02,SSE,161,1.0,5.0,53,0.00,,,0.00,,2013-08-05 17:22:00,
2013-08-05 13:38:00,80.0,61.0,30.02,SSE,161,1.0,5.0,53,0.00,,,0.00,,2013-08-05 17:38:00,
2013-08-05 14:01:00,80.0,65.0,30.01,North,0,0.0,1.0,60,0.00,,,0.00,,2013-08-05 18:01:00,
2013-08-05 14:08:00,80.0,65.0,30.01,North,0,0.0,1.0,60,0.00,,,0.00,,2013-08-05 18:08:00,
2013-08-05 14:13:00,80.0,65.0,30.01,North,0,0.0,1.0,60,0.00,,,0.00,,2013-08-05 18:13:00,
2013-08-05 14:38:00,80.0,64.0,30.00,North,0,0.0,3.0,58,0.00,,,0.00,,2013-08-05 18:38:00,
2013-08-05 14:44:00,80.0,64.0,30.00,North,0,0.0,3.0,58,0.00,,,0.00,,2013-08-05 18:44:00,
2013-08-05 14:54:00,80.0,65.0,30.00,North,0,0.0,2.0,61,0.00,,,0.00,,2013-08-05 18:54:00,
2013-08-05 15:05:00,80.0,65.0,30.00,North,0,0.0,2.0,61,0.00,,,0.00,,2013-08-05 19:05:00,
2013-08-05 15:15:00,80.0,65.0,30.00,North,0,0.0,2.0,61,0.00,,,0.00,,2013-08-05 19:15:00,
2013-08-05 15:39:00,80.0,67.0,29.99,North,0,0.0,1.0,65,0.00,,,0.00,,2013-08-05 19:39:00,
2013-08-05 15:52:00,82.0,66.0,29.98,North,0,0.0,1.0,59,0.00,,,0.00,,2013-08-05 19:52:00,
2013-08-05 16:09:00,82.0,65.0,29.97,SSE,147,1.0,4.0,57,0.00,,,0.00,,2013-08-05 20:09:00,
2013-08-05 16:15:00,82.0,65.0,29.97,SSE,147,1.0,4.0,57,0.00,,,0.00,,2013-08-05 20:15:00,
2013-08-05 16:28:00,82.0,65.0,29.97,North,0,0.0,3.0,57,0.00,,,0.00,,2013-08-05 20:28:00,
2013-08-05 16:39:00,81.0,69.0,29.97,North,0,0.0,1.0,66,0.00,,,0.00,,2013-08-05 20:39:00,
2013-08-05 16:48:00,81.0,71.0,29.97,North,0,0.0,0.0,71,0.00,,,0.00,,2013-08-05 20:48:00,
2013-08-05 16:57:00,82.0,66.0,29.96,North,0,0.0,3.0,59,0.00,,,0.00,,2013-08-05 20:57:00,
2013-08-05 17:26:00,81.0,68.0,29.97,North,0,0.0,0.0,65,0.00,,,0.00,,2013-08-05 21:26:00,
2013-08-05 17:34:00,81.0,71.0,29.97,North,0,0.0,0.0,71,0.00,,,0.00,,2013-08-05 21:34:00,
2013-08-05 17:53:00,81.0,67.0,29.96,North,0,0.0,2.0,63,0.00,,,0.00,,2013-08-05 21:53:00,
2013-08-05 18:05:00,81.0,67.0,29.96,North,0,0.0,2.0,63,0.00,,,0.00,,2013-08-05 22:05:00,
2013-08-05 18:27:00,78.0,69.0,29.96,North,0,0.0,0.0,74,0.00,,,0.00,,2013-08-05 22:27:00,
2013-08-05 18:38:00,78.0,69.0,29.96,North,0,0.0,0.0,74,0.00,,,0.00,,2013-08-05 22:38:00,
2013-08-05 18:44:00,78.0,71.0,29.95,North,0,0.0,0.0,78,0.00,,,0.00,,2013-08-05 22:44:00,
2013-08-05 18:53:00,78.0,71.0,29.95,North,0,0.0,0.0,78,0.00,,,0.00,,2013-08-05 22:53:00,
2013-08-05 19:07:00,77.0,71.0,29.96,North,0,0.0,0.0,81,0.00,,,0.00,,2013-08-05 23:07:00,
2013-08-05 19:18:00,77.0,71.0,29.96,North,0,0.0,0.0,81,0.00,,,0.00,,2013-08-05 23:18:00,
2013-08-05 19:27:00,77.0,72.0,29.95,North,0,0.0,0.0,84,0.00,,,0.00,,2013-08-05 23:27:00,
2013-08-05 19:33:00,76.0,70.0,29.96,North,0,0.0,0.0,83,0.00,,,0.00,,2013-08-05 23:33:00,
2013-08-05 19:46:00,76.0,70.0,29.96,North,0,0.0,0.0,83,0.00,,,0.00,,2013-08-05 23:46:00,
2013-08-05 20:02:00,76.0,70.0,29.96,North,0,0.0,0.0,83,0.00,,,0.00,,2013-08-06 00:02:00,
2013-08-05 20:15:00,74.0,70.0,29.96,North,0,0.0,0.0,87,0.00,,,0.00,,2013-08-06 00:15:00,
2013-08-05 20:24:00,74.0,70.0,29.96,North,0,0.0,0.0,88,0.00,,,0.00,,2013-08-06 00:24:00,
2013-08-05 20:37:00,74.0,70.0,29.96,North,0,0.0,0.0,88,0.00,,,0.00,,2013-08-06 00:37:00,
2013-08-05 20:45:00,73.0,69.0,29.96,North,0,0.0,0.0,88,0.00,,,0.00,,2013-08-06 00:45:00,
2013-08-05 20:57:00,73.0,69.0,29.96,North,0,0.0,0.0,88,0.00,,,0.00,,2013-08-06 00:57:00,
2013-08-05 21:10:00,73.0,70.0,29.97,North,0,0.0,0.0,89,0.00,,,0.00,,2013-08-06 01:10:00,
2013-08-05 21:28:00,73.0,70.0,29.98,North,0,0.0,0.0,89,0.00,,,0.00,,2013-08-06 01:28:00,
2013-08-05 21:40:00,73.0,70.0,29.98,North,0,0.0,0.0,89,0.00,,,0.00,,2013-08-06 01:40:00,
2013-08-05 21:57:00,72.0,69.0,29.98,North,0,0.0,0.0,90,0.00,,,0.00,,2013-08-06 01:57:00,
2013-08-05 22:10:00,72.0,69.0,29.97,North,0,0.0,0.0,91,0.00,,,0.00,,2013-08-06 02:10:00,
2013-08-05 22:33:00,72.0,69.0,29.98,North,0,0.0,0.0,90,0.00,,,0.00,,2013-08-06 02:33:00,
2013-08-05 22:47:00,72.0,69.0,29.98,North,0,0.0,0.0,90,0.00,,,0.00,,2013-08-06 02:47:00,
2013-08-05 22:52:00,72.0,69.0,29.98,North,0,0.0,0.0,90,0.00,,,0.00,,2013-08-06 02:52:00,
2013-08-05 23:02:00,71.0,68.0,29.97,North,0,0.0,0.0,90,0.00,,,0.00,,2013-08-06 03:02:00,
2013-08-05 23:18:00,71.0,68.0,29.97,North,0,0.0,0.0,90,0.00,,,0.00,,2013-08-06 03:18:00,
2013-08-05 23:26:00,71.0,68.0,29.97,North,0,0.0,0.0,90,0.00,,,0.00,,2013-08-06 03:26:00,
2013-08-05 23:35:00,71.0,68.0,29.97,North,0,0.0,0.0,90,0.00,,,0.00,,2013-08-06 03:35:00,
2013-08-05 23:45:00,71.0,68.0,29.97,North,0,0.0,0.0,90,0.00,,,0.00,,2013-08-06 03:45:00,
2013-08-05 23:52:00,71.0,68.0,29.97,North,0,0.0,0.0,90,0.00,,,0.00,,2013-08-06 03:52:00,